createdAt,value
2017-02-08T00:00:36.936Z,0
2017-02-08T00:01:47.250Z,0
2017-02-08T00:02:57.806Z,0
2017-02-08T00:04:08.115Z,0
2017-02-08T00:05:18.430Z,0
2017-02-08T00:06:29.147Z,0
2017-02-08T00:07:39.470Z,0
2017-02-08T00:08:50.043Z,0
2017-02-08T00:10:00.360Z,0
2017-02-08T00:11:10.693Z,0
2017-02-08T00:12:21.413Z,0
2017-02-08T00:13:31.736Z,0
2017-02-08T00:14:42.737Z,0
2017-02-08T00:15:52.666Z,0
2017-02-08T00:17:03.381Z,0
2017-02-08T00:18:14.093Z,0
2017-02-08T00:19:24.014Z,0
2017-02-08T00:20:34.616Z,0
2017-02-08T00:21:44.526Z,0
2017-02-08T00:22:55.441Z,0
2017-02-08T00:24:06.152Z,0
2017-02-08T00:25:15.695Z,0
2017-02-08T00:26:25.075Z,0
2017-02-08T00:27:35.384Z,0
2017-02-08T00:28:45.692Z,0
2017-02-08T00:29:55.211Z,0
2017-02-08T00:31:05.340Z,0
2017-02-08T00:32:15.536Z,0
2017-02-08T00:33:26.261Z,0
2017-02-08T00:34:36.968Z,0
2017-02-08T00:35:47.281Z,0
2017-02-08T00:36:57.581Z,0
2017-02-08T00:38:08.155Z,0
2017-02-08T00:39:18.866Z,0
2017-02-08T00:40:29.179Z,0
2017-02-08T00:41:39.112Z,0
2017-02-08T00:42:49.818Z,0
2017-02-08T00:43:59.586Z,0
2017-02-08T00:45:10.296Z,0
2017-02-08T00:46:20.208Z,0
2017-02-08T00:47:30.523Z,0
2017-02-08T00:48:40.426Z,0
2017-02-08T00:49:50.984Z,0
2017-02-08T00:51:01.324Z,0
2017-02-08T00:52:11.630Z,0
2017-02-08T00:53:21.543Z,0
2017-02-08T00:54:31.870Z,0
2017-02-08T00:55:42.030Z,0
2017-02-08T00:56:52.732Z,0
2017-02-08T00:58:02.677Z,0
2017-02-08T00:59:12.587Z,0
2017-02-08T01:00:23.284Z,0
2017-02-08T01:01:33.845Z,0
2017-02-08T01:02:44.545Z,0
2017-02-08T01:03:54.463Z,0
2017-02-08T01:05:03.992Z,0
2017-02-08T01:06:13.912Z,0
2017-02-08T01:07:24.476Z,0
2017-02-08T01:08:34.784Z,0
2017-02-08T01:09:44.699Z,0
2017-02-08T01:10:55.003Z,0
2017-02-08T01:12:04.908Z,0
2017-02-08T01:13:15.911Z,0
2017-02-08T01:14:25.829Z,0
2017-02-08T01:15:36.152Z,0
2017-02-08T01:16:46.071Z,0
2017-02-08T01:17:55.585Z,0
2017-02-08T01:19:05.794Z,0
2017-02-08T01:20:15.715Z,0
2017-02-08T01:21:25.248Z,0
2017-02-08T01:22:34.776Z,0
2017-02-08T01:23:45.084Z,0
2017-02-08T01:24:55.240Z,0
2017-02-08T01:26:05.536Z,0
2017-02-08T01:27:15.446Z,0
2017-02-08T01:28:25.367Z,0
2017-02-08T01:29:36.068Z,0
2017-02-08T01:30:47.024Z,0
2017-02-08T01:31:57.726Z,0
2017-02-08T01:33:08.436Z,0
2017-02-08T01:34:18.351Z,0
2017-02-08T01:35:28.263Z,0
2017-02-08T01:36:38.429Z,0
2017-02-08T01:37:49.123Z,0
2017-02-08T01:38:59.035Z,0
2017-02-08T01:40:08.561Z,0
2017-02-08T01:41:18.496Z,0
2017-02-08T01:42:29.492Z,0
2017-02-08T01:43:40.194Z,0
2017-02-08T01:44:50.507Z,0
2017-02-08T01:46:00.425Z,0
2017-02-08T01:47:10.729Z,0
2017-02-08T01:48:20.899Z,0
2017-02-08T01:49:31.204Z,0
2017-02-08T01:50:41.514Z,0
2017-02-08T01:51:51.865Z,0
2017-02-08T01:53:02.188Z,0
2017-02-08T01:54:13.192Z,0
2017-02-08T01:55:23.116Z,0
2017-02-08T01:56:33.040Z,0
2017-02-08T01:57:42.975Z,0
2017-02-08T01:58:52.508Z,0
2017-02-08T02:00:03.466Z,0
2017-02-08T02:01:13.378Z,0
2017-02-08T02:02:23.682Z,0
2017-02-08T02:03:33.980Z,0
2017-02-08T02:04:44.291Z,0
2017-02-08T02:05:54.450Z,0
2017-02-08T02:07:04.783Z,0
2017-02-08T02:08:15.086Z,0
2017-02-08T02:09:25.781Z,0
2017-02-08T02:10:36.081Z,0
2017-02-08T02:11:47.080Z,0
2017-02-08T02:12:57.003Z,0
2017-02-08T02:14:07.703Z,0
2017-02-08T02:15:17.621Z,0
2017-02-08T02:16:28.322Z,0
2017-02-08T02:17:38.932Z,0
2017-02-08T02:18:48.456Z,0
2017-02-08T02:19:58.363Z,0
2017-02-08T02:21:07.887Z,0
2017-02-08T02:22:17.800Z,0
2017-02-08T02:23:28.360Z,0
2017-02-08T02:24:38.264Z,0
2017-02-08T02:25:48.955Z,0
2017-02-08T02:26:59.649Z,0
2017-02-08T02:28:09.959Z,0
2017-02-08T02:29:20.504Z,0
2017-02-08T02:30:30.807Z,0
2017-02-08T02:31:41.143Z,0
2017-02-08T02:32:51.605Z,0
2017-02-08T02:34:02.316Z,0
2017-02-08T02:35:13.269Z,0
2017-02-08T02:36:22.782Z,0
2017-02-08T02:37:33.086Z,0
2017-02-08T02:38:43.002Z,0
2017-02-08T02:39:53.314Z,0
2017-02-08T02:41:03.876Z,0
2017-02-08T02:42:14.186Z,0
2017-02-08T02:43:24.500Z,0
2017-02-08T02:44:35.206Z,0
2017-02-08T02:45:45.121Z,0
2017-02-08T02:46:55.694Z,0
2017-02-08T02:48:04.826Z,0
2017-02-08T02:49:15.527Z,0
2017-02-08T02:50:25.437Z,0
2017-02-08T02:51:34.958Z,0
2017-02-08T02:52:45.124Z,0
2017-02-08T02:53:55.441Z,0
2017-02-08T02:55:05.351Z,0
2017-02-08T02:56:15.261Z,0
2017-02-08T02:57:24.781Z,0
2017-02-08T02:58:34.951Z,0
2017-02-08T02:59:44.861Z,0
2017-02-08T03:00:55.565Z,0
2017-02-08T03:02:05.875Z,0
2017-02-08T03:03:16.576Z,0
2017-02-08T03:04:27.537Z,0
2017-02-08T03:05:37.837Z,0
2017-02-08T03:06:48.538Z,0
2017-02-08T03:07:58.842Z,0
2017-02-08T03:09:09.549Z,0
2017-02-08T03:10:20.109Z,0
2017-02-08T03:11:30.023Z,0
2017-02-08T03:12:40.330Z,0
2017-02-08T03:13:51.030Z,0
2017-02-08T03:15:01.739Z,0
2017-02-08T03:16:12.301Z,0
2017-02-08T03:17:22.999Z,0
2017-02-08T03:18:32.916Z,0
2017-02-08T03:19:42.833Z,0
2017-02-08T03:20:53.142Z,0
2017-02-08T03:22:04.137Z,0
2017-02-08T03:23:14.461Z,0
2017-02-08T03:24:23.978Z,0
2017-02-08T03:25:33.891Z,0
2017-02-08T03:26:43.792Z,0
2017-02-08T03:27:54.346Z,0
2017-02-08T03:29:04.563Z,0
2017-02-08T03:30:15.270Z,0
2017-02-08T03:31:25.578Z,0
2017-02-08T03:32:35.895Z,0
2017-02-08T03:33:46.901Z,0
2017-02-08T03:34:57.597Z,0
2017-02-08T03:36:07.899Z,0
2017-02-08T03:37:18.212Z,0
2017-02-08T03:38:28.131Z,0
2017-02-08T03:39:38.691Z,0
2017-02-08T03:40:49.389Z,0
2017-02-08T03:41:59.690Z,0
2017-02-08T03:43:09.605Z,0
2017-02-08T03:44:19.948Z,0
2017-02-08T03:45:30.505Z,0
2017-02-08T03:46:40.410Z,0
2017-02-08T03:47:50.714Z,0
2017-02-08T03:49:01.026Z,0
2017-02-08T03:50:10.947Z,0
2017-02-08T03:51:21.504Z,0
2017-02-08T03:52:31.029Z,0
2017-02-08T03:53:41.719Z,0
2017-02-08T03:54:52.421Z,0
2017-02-08T03:56:03.127Z,0
2017-02-08T03:57:12.894Z,0
2017-02-08T03:58:23.591Z,0
2017-02-08T03:59:33.507Z,0
2017-02-08T04:00:43.816Z,0
2017-02-08T04:01:54.548Z,0
2017-02-08T04:03:05.511Z,0
2017-02-08T04:04:15.818Z,0
2017-02-08T04:05:25.732Z,0
2017-02-08T04:06:36.431Z,0
2017-02-08T04:07:47.143Z,0
2017-02-08T04:08:57.704Z,0
2017-02-08T04:10:08.014Z,0
2017-02-08T04:11:18.318Z,0
2017-02-08T04:12:28.623Z,0
2017-02-08T04:13:38.933Z,0
2017-02-08T04:14:49.933Z,0
2017-02-08T04:16:00.650Z,0
2017-02-08T04:17:11.355Z,0
2017-02-08T04:18:22.062Z,0
2017-02-08T04:19:32.371Z,0
2017-02-08T04:20:42.982Z,0
2017-02-08T04:21:53.684Z,0
2017-02-08T04:23:03.995Z,0
2017-02-08T04:24:14.289Z,0
2017-02-08T04:25:24.991Z,0
2017-02-08T04:26:35.928Z,0
2017-02-08T04:27:45.839Z,0
2017-02-08T04:28:56.543Z,0
2017-02-08T04:30:06.844Z,0
2017-02-08T04:31:17.144Z,0
2017-02-08T04:32:27.755Z,0
2017-02-08T04:33:38.456Z,0
2017-02-08T04:34:47.976Z,0
2017-02-08T04:35:58.677Z,0
2017-02-08T04:37:08.990Z,0
2017-02-08T04:38:19.937Z,0
2017-02-08T04:39:30.250Z,0
2017-02-08T04:40:40.965Z,0
2017-02-08T04:41:50.476Z,0
2017-02-08T04:43:00.789Z,0
2017-02-08T04:44:11.394Z,0
2017-02-08T04:45:21.698Z,0
2017-02-08T04:46:31.222Z,0
2017-02-08T04:47:41.522Z,0
2017-02-08T04:48:51.438Z,0
2017-02-08T04:50:02.015Z,0
2017-02-08T04:51:11.929Z,0
2017-02-08T04:52:22.635Z,0
2017-02-08T04:53:32.985Z,0
2017-02-08T04:54:43.703Z,0
2017-02-08T04:55:54.261Z,0
2017-02-08T04:57:04.958Z,0
2017-02-08T04:58:15.249Z,0
2017-02-08T04:59:25.956Z,0
2017-02-08T05:00:36.656Z,0
2017-02-08T05:01:47.624Z,0
2017-02-08T05:02:58.324Z,0
2017-02-08T05:04:09.026Z,0
2017-02-08T05:05:19.740Z,0
2017-02-08T05:06:30.450Z,0
2017-02-08T05:07:40.661Z,0
2017-02-08T05:08:51.361Z,0
2017-02-08T05:10:02.112Z,0
2017-02-08T05:11:12.424Z,0
2017-02-08T05:12:22.328Z,0
2017-02-08T05:13:32.891Z,0
2017-02-08T05:14:43.615Z,0
2017-02-08T05:15:53.535Z,0
2017-02-08T05:17:04.242Z,0
2017-02-08T05:18:14.153Z,0
2017-02-08T05:19:23.915Z,0
2017-02-08T05:20:34.233Z,0
2017-02-08T05:21:44.147Z,0
2017-02-08T05:22:54.463Z,0
2017-02-08T05:24:05.164Z,0
2017-02-08T05:25:16.118Z,0
2017-02-08T05:26:26.029Z,0
2017-02-08T05:27:36.335Z,0
2017-02-08T05:28:46.669Z,0
2017-02-08T05:29:56.976Z,0
2017-02-08T05:31:06.751Z,0
2017-02-08T05:32:17.082Z,0
2017-02-08T05:33:27.392Z,0
2017-02-08T05:34:37.305Z,0
2017-02-08T05:35:48.003Z,0
2017-02-08T05:36:58.573Z,0
2017-02-08T05:38:08.892Z,0
2017-02-08T05:39:19.205Z,0
2017-02-08T05:40:29.916Z,0
2017-02-08T05:41:40.228Z,0
2017-02-08T05:42:50.786Z,0
2017-02-08T05:44:01.503Z,0
2017-02-08T05:45:11.808Z,0
2017-02-08T05:46:22.138Z,0
2017-02-08T05:47:32.838Z,0
2017-02-08T05:48:43.801Z,0
2017-02-08T05:49:54.108Z,0
2017-02-08T05:51:04.822Z,0
2017-02-08T05:52:15.138Z,0
2017-02-08T05:53:25.440Z,0
2017-02-08T05:54:35.211Z,0
2017-02-08T05:55:45.913Z,0
2017-02-08T05:56:56.648Z,0
2017-02-08T05:58:06.965Z,0
2017-02-08T05:59:17.293Z,0
2017-02-08T06:00:28.252Z,0
2017-02-08T06:01:38.956Z,0
2017-02-08T06:02:49.271Z,0
2017-02-08T06:04:00.000Z,0
2017-02-08T06:05:10.707Z,0
2017-02-08T06:06:20.855Z,0
2017-02-08T06:07:31.171Z,0
2017-02-08T06:08:41.878Z,0
2017-02-08T06:09:51.790Z,0
2017-02-08T06:11:02.492Z,0
2017-02-08T06:12:13.446Z,0
2017-02-08T06:13:24.157Z,0
2017-02-08T06:14:34.473Z,0
2017-02-08T06:15:44.816Z,0
2017-02-08T06:16:55.123Z,0
2017-02-08T06:18:05.682Z,0
2017-02-08T06:19:15.997Z,0
2017-02-08T06:20:26.167Z,0
2017-02-08T06:21:36.480Z,0
2017-02-08T06:22:47.188Z,4
2017-02-08T06:23:58.144Z,4
2017-02-08T06:25:09.006Z,4
2017-02-08T06:26:19.721Z,0
2017-02-08T06:27:30.426Z,4
2017-02-08T06:28:40.742Z,4
2017-02-08T06:29:51.696Z,4
2017-02-08T06:31:03.293Z,8
2017-02-08T06:32:14.014Z,4
2017-02-08T06:33:24.362Z,4
2017-02-08T06:34:35.069Z,8
2017-02-08T06:35:46.029Z,8
2017-02-08T06:36:56.024Z,8
2017-02-08T06:38:06.327Z,8
2017-02-08T06:39:16.259Z,8
2017-02-08T06:40:26.976Z,12
2017-02-08T06:41:37.933Z,8
2017-02-08T06:42:48.634Z,12
2017-02-08T06:43:59.345Z,12
2017-02-08T06:45:10.084Z,16
2017-02-08T06:46:20.819Z,16
2017-02-08T06:47:31.783Z,16
2017-02-08T06:48:42.493Z,20
2017-02-08T06:49:52.800Z,20
2017-02-08T06:51:03.117Z,20
2017-02-08T06:52:13.047Z,20
2017-02-08T06:53:24.017Z,20
2017-02-08T06:54:34.340Z,24
2017-02-08T06:55:45.061Z,24
2017-02-08T06:56:54.584Z,24
2017-02-08T06:58:05.292Z,28
2017-02-08T06:59:16.243Z,28
2017-02-08T07:00:26.964Z,36
2017-02-08T07:01:37.292Z,36
2017-02-08T07:02:47.597Z,40
2017-02-08T07:03:57.905Z,40
2017-02-08T07:05:08.470Z,44
2017-02-08T07:06:19.213Z,44
2017-02-08T07:07:29.933Z,40
2017-02-08T07:08:40.240Z,44
2017-02-08T07:09:50.564Z,48
2017-02-08T07:11:01.522Z,52
2017-02-08T07:12:11.846Z,48
2017-02-08T07:13:22.563Z,56
2017-02-08T07:14:32.489Z,60
2017-02-08T07:15:42.415Z,56
2017-02-08T07:16:53.463Z,64
2017-02-08T07:18:04.182Z,68
2017-02-08T07:19:14.499Z,76
2017-02-08T07:20:25.266Z,72
2017-02-08T07:21:35.571Z,76
2017-02-08T07:22:46.547Z,80
2017-02-08T07:23:56.874Z,84
2017-02-08T07:25:07.599Z,88
2017-02-08T07:26:18.342Z,92
2017-02-08T07:27:28.266Z,92
2017-02-08T07:28:38.437Z,92
2017-02-08T07:29:49.142Z,100
2017-02-08T07:30:59.456Z,104
2017-02-08T07:32:10.162Z,108
2017-02-08T07:33:20.498Z,112
2017-02-08T07:34:31.487Z,116
2017-02-08T07:35:41.955Z,116
2017-02-08T07:36:52.683Z,120
2017-02-08T07:38:03.026Z,132
2017-02-08T07:39:13.775Z,136
2017-02-08T07:40:24.339Z,140
2017-02-08T07:41:35.062Z,144
2017-02-08T07:42:45.021Z,148
2017-02-08T07:43:55.737Z,148
2017-02-08T07:45:06.451Z,152
2017-02-08T07:46:16.786Z,160
2017-02-08T07:47:27.509Z,168
2017-02-08T07:48:38.278Z,176
2017-02-08T07:49:48.596Z,180
2017-02-08T07:50:58.915Z,180
2017-02-08T07:52:09.137Z,184
2017-02-08T07:53:19.448Z,184
2017-02-08T07:54:29.780Z,188
2017-02-08T07:55:40.108Z,184
2017-02-08T07:56:50.831Z,184
2017-02-08T07:58:01.782Z,192
2017-02-08T07:59:12.114Z,192
2017-02-08T08:00:22.831Z,196
2017-02-08T08:01:33.685Z,216
2017-02-08T08:02:44.409Z,228
2017-02-08T08:03:54.592Z,248
2017-02-08T08:05:05.310Z,272
2017-02-08T08:06:15.256Z,280
2017-02-08T08:07:25.615Z,312
2017-02-08T08:08:35.937Z,312
2017-02-08T08:09:46.562Z,312
2017-02-08T08:10:56.891Z,316
2017-02-08T08:12:07.240Z,304
2017-02-08T08:13:16.771Z,308
2017-02-08T08:14:27.488Z,308
2017-02-08T08:15:38.475Z,316
2017-02-08T08:16:49.442Z,324
2017-02-08T08:18:00.172Z,316
2017-02-08T08:19:10.490Z,312
2017-02-08T08:20:21.206Z,312
2017-02-08T08:21:31.432Z,320
2017-02-08T08:22:42.161Z,332
2017-02-08T08:23:52.883Z,340
2017-02-08T08:25:03.593Z,340
2017-02-08T08:26:13.907Z,360
2017-02-08T08:27:24.876Z,364
2017-02-08T08:28:35.209Z,344
2017-02-08T08:29:45.525Z,340
2017-02-08T08:30:55.845Z,356
2017-02-08T08:32:06.179Z,340
2017-02-08T08:33:16.786Z,344
2017-02-08T08:34:27.497Z,332
2017-02-08T08:35:37.810Z,324
2017-02-08T08:36:48.120Z,324
2017-02-08T08:37:58.840Z,324
2017-02-08T08:39:09.455Z,336
2017-02-08T08:40:19.772Z,360
2017-02-08T08:41:29.698Z,408
2017-02-08T08:42:39.617Z,400
2017-02-08T08:43:50.656Z,400
2017-02-08T08:45:01.678Z,396
2017-02-08T08:46:12.060Z,408
2017-02-08T08:47:22.837Z,404
2017-02-08T08:48:33.196Z,408
2017-02-08T08:49:43.934Z,412
2017-02-08T08:50:54.120Z,416
2017-02-08T08:52:04.077Z,424
2017-02-08T08:53:14.418Z,432
2017-02-08T08:54:25.167Z,440
2017-02-08T08:55:35.965Z,448
2017-02-08T08:56:46.999Z,456
2017-02-08T08:57:57.382Z,464
2017-02-08T08:59:07.723Z,484
2017-02-08T09:00:18.481Z,500
2017-02-08T09:01:29.247Z,508
2017-02-08T09:02:40.255Z,520
2017-02-08T09:03:51.016Z,508
2017-02-08T09:05:01.757Z,528
2017-02-08T09:06:12.073Z,540
2017-02-08T09:07:22.809Z,540
2017-02-08T09:08:33.403Z,556
2017-02-08T09:09:44.159Z,576
2017-02-08T09:10:54.792Z,568
2017-02-08T09:12:05.810Z,576
2017-02-08T09:13:17.030Z,580
2017-02-08T09:14:28.103Z,584
2017-02-08T09:15:38.855Z,552
2017-02-08T09:16:48.829Z,572
2017-02-08T09:17:59.174Z,568
2017-02-08T09:19:09.397Z,572
2017-02-08T09:20:20.242Z,576
2017-02-08T09:21:30.966Z,544
2017-02-08T09:22:41.332Z,544
2017-02-08T09:23:52.050Z,548
2017-02-08T09:25:02.377Z,524
2017-02-08T09:26:13.414Z,536
2017-02-08T09:27:24.160Z,552
2017-02-08T09:28:35.070Z,540
2017-02-08T09:29:45.412Z,520
2017-02-08T09:30:56.123Z,520
2017-02-08T09:32:07.083Z,536
2017-02-08T09:33:17.444Z,520
2017-02-08T09:34:27.376Z,524
2017-02-08T09:35:38.094Z,508
2017-02-08T09:36:48.421Z,496
2017-02-08T09:37:59.040Z,512
2017-02-08T09:39:09.777Z,496
2017-02-08T09:40:20.522Z,508
2017-02-08T09:41:31.237Z,512
2017-02-08T09:42:41.556Z,524
2017-02-08T09:43:52.614Z,528
2017-02-08T09:45:03.275Z,528
2017-02-08T09:46:13.617Z,532
2017-02-08T09:47:24.360Z,496
2017-02-08T09:48:34.730Z,484
2017-02-08T09:49:45.714Z,476
2017-02-08T09:50:56.434Z,468
2017-02-08T09:52:06.787Z,472
2017-02-08T09:53:17.137Z,472
2017-02-08T09:54:27.873Z,472
2017-02-08T09:55:38.917Z,472
2017-02-08T09:56:48.849Z,488
2017-02-08T09:57:58.795Z,504
2017-02-08T09:59:09.148Z,516
2017-02-08T10:00:19.503Z,532
2017-02-08T10:01:30.574Z,540
2017-02-08T10:02:41.356Z,548
2017-02-08T10:03:51.285Z,556
2017-02-08T10:05:01.624Z,568
2017-02-08T10:06:11.970Z,616
2017-02-08T10:07:22.706Z,692
2017-02-08T10:08:33.519Z,732
2017-02-08T10:09:44.266Z,716
2017-02-08T10:10:54.592Z,744
2017-02-08T10:12:05.185Z,728
2017-02-08T10:13:15.913Z,700
2017-02-08T10:14:26.640Z,704
2017-02-08T10:15:37.004Z,724
2017-02-08T10:16:47.329Z,752
2017-02-08T10:17:58.304Z,792
2017-02-08T10:19:09.043Z,828
2017-02-08T10:20:19.378Z,876
2017-02-08T10:21:30.111Z,904
2017-02-08T10:22:40.429Z,896
2017-02-08T10:23:50.617Z,892
2017-02-08T10:25:01.335Z,876
2017-02-08T10:26:12.048Z,864
2017-02-08T10:27:22.771Z,896
2017-02-08T10:28:33.101Z,872
2017-02-08T10:29:44.080Z,900
2017-02-08T10:30:54.416Z,936
2017-02-08T10:32:05.127Z,952
2017-02-08T10:33:15.844Z,964
2017-02-08T10:34:26.559Z,932
2017-02-08T10:35:37.175Z,920
2017-02-08T10:36:47.888Z,912
2017-02-08T10:37:57.808Z,924
2017-02-08T10:39:08.129Z,968
2017-02-08T10:40:18.447Z,968
2017-02-08T10:41:29.422Z,952
2017-02-08T10:42:39.756Z,936
2017-02-08T10:43:49.271Z,948
2017-02-08T10:44:59.983Z,952
2017-02-08T10:46:10.691Z,968
2017-02-08T10:47:21.261Z,980
2017-02-08T10:48:31.578Z,944
2017-02-08T10:49:42.308Z,952
2017-02-08T10:50:53.031Z,884
2017-02-08T10:52:03.731Z,888
2017-02-08T10:53:14.287Z,896
2017-02-08T10:54:24.999Z,880
2017-02-08T10:55:35.328Z,912
2017-02-08T10:56:45.639Z,980
2017-02-08T10:57:55.946Z,1068
2017-02-08T10:59:06.610Z,1072
2017-02-08T11:00:17.374Z,1108
2017-02-08T11:01:28.125Z,1152
2017-02-08T11:02:38.458Z,1196
2017-02-08T11:03:48.771Z,1236
2017-02-08T11:04:59.802Z,1360
2017-02-08T11:06:10.539Z,1372
2017-02-08T11:07:20.900Z,1420
2017-02-08T11:08:31.616Z,1420
2017-02-08T11:09:41.940Z,1332
2017-02-08T11:10:52.550Z,1296
2017-02-08T11:12:02.868Z,1272
2017-02-08T11:13:12.787Z,1304
2017-02-08T11:14:23.095Z,1296
2017-02-08T11:15:33.819Z,1296
2017-02-08T11:16:44.398Z,1248
2017-02-08T11:17:53.928Z,1144
2017-02-08T11:19:04.228Z,1148
2017-02-08T11:20:14.551Z,1104
2017-02-08T11:21:25.264Z,1124
2017-02-08T11:22:35.832Z,1096
2017-02-08T11:23:45.758Z,1076
2017-02-08T11:24:55.685Z,1076
2017-02-08T11:26:05.610Z,1172
2017-02-08T11:27:16.309Z,1224
2017-02-08T11:28:27.514Z,1264
2017-02-08T11:29:38.231Z,1344
2017-02-08T11:30:48.558Z,1240
2017-02-08T11:31:59.275Z,1240
2017-02-08T11:33:10.005Z,1300
2017-02-08T11:34:20.978Z,1260
2017-02-08T11:35:30.933Z,1256
2017-02-08T11:36:41.234Z,1212
2017-02-08T11:37:51.978Z,1200
2017-02-08T11:39:01.912Z,1180
2017-02-08T11:40:12.858Z,1180
2017-02-08T11:41:24.319Z,1156
2017-02-08T11:42:34.900Z,1152
2017-02-08T11:43:45.236Z,1156
2017-02-08T11:44:55.592Z,1168
2017-02-08T11:46:06.170Z,1212
2017-02-08T11:47:16.944Z,1228
2017-02-08T11:48:27.665Z,1248
2017-02-08T11:49:38.397Z,1220
2017-02-08T11:50:49.109Z,1208
2017-02-08T11:52:00.075Z,1216
2017-02-08T11:53:10.791Z,1160
2017-02-08T11:54:21.514Z,1100
2017-02-08T11:55:32.236Z,1024
2017-02-08T11:56:42.945Z,1004
2017-02-08T11:57:53.550Z,1028
2017-02-08T11:59:04.305Z,1020
2017-02-08T12:00:15.014Z,1024
2017-02-08T12:01:25.737Z,1056
2017-02-08T12:02:36.107Z,1068
2017-02-08T12:03:47.078Z,1088
2017-02-08T12:04:57.416Z,1096
2017-02-08T12:06:07.736Z,1088
2017-02-08T12:07:18.058Z,1092
2017-02-08T12:08:27.983Z,1088
2017-02-08T12:09:38.961Z,1084
2017-02-08T12:10:49.703Z,1068
2017-02-08T12:12:00.421Z,1040
2017-02-08T12:13:10.751Z,1032
2017-02-08T12:14:21.091Z,1044
2017-02-08T12:15:32.067Z,1052
2017-02-08T12:16:42.398Z,1000
2017-02-08T12:17:52.323Z,1000
2017-02-08T12:19:01.463Z,1000
2017-02-08T12:20:12.199Z,1004
2017-02-08T12:21:22.820Z,1032
2017-02-08T12:22:33.558Z,1052
2017-02-08T12:23:43.914Z,1052
2017-02-08T12:24:54.649Z,1052
2017-02-08T12:26:04.975Z,1052
2017-02-08T12:27:15.944Z,1028
2017-02-08T12:28:26.686Z,1032
2017-02-08T12:29:37.438Z,1036
2017-02-08T12:30:48.157Z,1028
2017-02-08T12:31:58.916Z,1024
2017-02-08T12:33:09.919Z,1036
2017-02-08T12:34:20.656Z,1028
2017-02-08T12:35:30.576Z,1012
2017-02-08T12:36:40.888Z,992
2017-02-08T12:37:51.645Z,972
2017-02-08T12:39:02.675Z,976
2017-02-08T12:40:13.012Z,972
2017-02-08T12:41:22.534Z,964
2017-02-08T12:42:33.264Z,964
2017-02-08T12:43:43.996Z,952
2017-02-08T12:44:55.010Z,940
2017-02-08T12:46:05.734Z,940
2017-02-08T12:47:16.071Z,932
2017-02-08T12:48:26.785Z,912
2017-02-08T12:49:37.494Z,924
2017-02-08T12:50:48.488Z,928
2017-02-08T12:51:58.829Z,928
2017-02-08T12:53:09.530Z,940
2017-02-08T12:54:19.469Z,944
2017-02-08T12:55:29.799Z,936
2017-02-08T12:56:40.756Z,920
2017-02-08T12:57:50.678Z,920
2017-02-08T12:59:01.393Z,916
2017-02-08T13:00:12.125Z,888
2017-02-08T13:01:22.864Z,876
2017-02-08T13:02:33.389Z,880
2017-02-08T13:03:44.105Z,872
2017-02-08T13:04:54.425Z,872
2017-02-08T13:06:05.141Z,868
2017-02-08T13:07:15.459Z,868
2017-02-08T13:08:26.438Z,852
2017-02-08T13:09:37.148Z,836
2017-02-08T13:10:47.485Z,824
2017-02-08T13:11:58.210Z,808
2017-02-08T13:13:08.535Z,812
2017-02-08T13:14:19.104Z,804
2017-02-08T13:15:29.827Z,812
2017-02-08T13:16:40.537Z,812
2017-02-08T13:17:51.248Z,804
2017-02-08T13:19:01.971Z,788
2017-02-08T13:20:12.947Z,772
2017-02-08T13:21:23.268Z,752
2017-02-08T13:22:34.003Z,748
2017-02-08T13:23:44.320Z,756
2017-02-08T13:24:55.046Z,748
2017-02-08T13:26:06.029Z,736
2017-02-08T13:27:16.742Z,724
2017-02-08T13:28:27.465Z,728
2017-02-08T13:29:36.988Z,744
2017-02-08T13:30:47.692Z,736
2017-02-08T13:31:57.914Z,728
2017-02-08T13:33:08.230Z,724
2017-02-08T13:34:18.147Z,712
2017-02-08T13:35:28.067Z,696
2017-02-08T13:36:38.387Z,684
2017-02-08T13:37:48.969Z,676
2017-02-08T13:38:59.280Z,656
2017-02-08T13:40:10.006Z,636
2017-02-08T13:41:20.749Z,632
2017-02-08T13:42:31.074Z,648
2017-02-08T13:43:42.256Z,668
2017-02-08T13:44:53.011Z,656
2017-02-08T13:46:03.741Z,628
2017-02-08T13:47:14.516Z,624
2017-02-08T13:48:25.283Z,628
2017-02-08T13:49:36.273Z,628
2017-02-08T13:50:46.995Z,624
2017-02-08T13:51:57.717Z,616
2017-02-08T13:53:08.432Z,616
2017-02-08T13:54:19.153Z,620
2017-02-08T13:55:29.497Z,624
2017-02-08T13:56:40.230Z,624
2017-02-08T13:57:50.953Z,620
2017-02-08T13:59:01.700Z,616
2017-02-08T14:00:12.278Z,612
2017-02-08T14:01:22.594Z,608
2017-02-08T14:02:33.312Z,592
2017-02-08T14:03:44.050Z,584
2017-02-08T14:04:54.777Z,572
2017-02-08T14:06:05.753Z,552
2017-02-08T14:07:16.496Z,540
2017-02-08T14:08:26.826Z,540
2017-02-08T14:09:37.600Z,536
2017-02-08T14:10:48.351Z,536
2017-02-08T14:11:59.370Z,544
2017-02-08T14:13:10.127Z,548
2017-02-08T14:14:20.470Z,540
2017-02-08T14:15:31.175Z,528
2017-02-08T14:16:41.887Z,508
2017-02-08T14:17:52.467Z,500
2017-02-08T14:19:03.193Z,508
2017-02-08T14:20:13.916Z,508
2017-02-08T14:21:24.643Z,496
2017-02-08T14:22:35.376Z,488
2017-02-08T14:23:45.980Z,472
2017-02-08T14:24:56.307Z,464
2017-02-08T14:26:07.046Z,444
2017-02-08T14:27:17.385Z,432
2017-02-08T14:28:28.122Z,428
2017-02-08T14:29:39.143Z,428
2017-02-08T14:30:49.971Z,432
2017-02-08T14:34:00.313Z,368
2017-02-08T14:39:10.190Z,304
2017-02-08T14:42:20.781Z,312
2017-02-08T14:43:31.513Z,296
2017-02-08T14:44:41.866Z,272
2017-02-08T14:45:52.595Z,260
2017-02-08T14:47:03.305Z,248
2017-02-08T14:48:14.313Z,244
2017-02-08T14:49:25.040Z,228
2017-02-08T14:50:35.364Z,216
2017-02-08T14:51:46.359Z,212
2017-02-08T14:52:56.707Z,220
2017-02-08T14:54:07.672Z,240
2017-02-08T14:55:18.383Z,244
2017-02-08T14:56:29.114Z,236
2017-02-08T14:57:39.840Z,228
2017-02-08T14:58:50.553Z,220
2017-02-08T15:00:00.897Z,212
2017-02-08T15:01:11.463Z,208
2017-02-08T15:02:22.179Z,204
2017-02-08T15:03:32.508Z,204
2017-02-08T15:04:43.472Z,200
2017-02-08T15:05:54.645Z,196
2017-02-08T15:07:05.357Z,196
2017-02-08T15:08:15.685Z,188
2017-02-08T15:09:26.002Z,180
2017-02-08T15:10:36.561Z,184
2017-02-08T15:11:46.489Z,180
2017-02-08T15:12:57.204Z,180
2017-02-08T15:14:07.928Z,172
2017-02-08T15:15:18.252Z,168
2017-02-08T15:16:29.228Z,156
2017-02-08T15:17:39.958Z,152
2017-02-08T15:18:50.297Z,152
2017-02-08T15:20:01.014Z,152
2017-02-08T15:21:11.731Z,148
2017-02-08T15:22:22.698Z,140
2017-02-08T15:23:33.421Z,140
2017-02-08T15:24:43.756Z,136
2017-02-08T15:25:54.076Z,132
2017-02-08T15:27:04.812Z,124
2017-02-08T15:28:15.381Z,120
2017-02-08T15:29:26.120Z,120
2017-02-08T15:30:36.436Z,116
2017-02-08T15:31:46.766Z,112
2017-02-08T15:32:57.500Z,104
2017-02-08T15:34:08.470Z,108
2017-02-08T15:35:19.196Z,104
2017-02-08T15:36:29.523Z,104
2017-02-08T15:37:40.249Z,96
2017-02-08T15:38:50.166Z,88
2017-02-08T15:40:00.393Z,84
2017-02-08T15:41:11.129Z,80
2017-02-08T15:42:21.435Z,80
2017-02-08T15:43:32.166Z,72
2017-02-08T15:44:42.893Z,68
2017-02-08T15:45:53.526Z,56
2017-02-08T15:47:03.891Z,56
2017-02-08T15:48:14.620Z,52
2017-02-08T15:49:25.346Z,44
2017-02-08T15:50:35.669Z,48
2017-02-08T15:51:46.687Z,44
2017-02-08T15:52:56.595Z,40
2017-02-08T15:54:07.318Z,36
2017-02-08T15:55:18.044Z,36
2017-02-08T15:56:28.780Z,28
2017-02-08T15:57:39.139Z,28
2017-02-08T15:58:49.466Z,28
2017-02-08T16:00:00.182Z,28
2017-02-08T16:01:10.543Z,24
2017-02-08T16:02:21.536Z,20
2017-02-08T16:03:32.268Z,20
2017-02-08T16:04:42.578Z,16
2017-02-08T16:05:53.298Z,16
2017-02-08T16:07:04.018Z,16
2017-02-08T16:08:14.978Z,12
2017-02-08T16:09:25.719Z,12
2017-02-08T16:10:36.082Z,12
2017-02-08T16:11:46.406Z,12
2017-02-08T16:12:57.141Z,8
2017-02-08T16:14:07.713Z,8
2017-02-08T16:15:18.422Z,8
2017-02-08T16:16:28.748Z,4
2017-02-08T16:17:39.064Z,4
2017-02-08T16:18:49.787Z,4
2017-02-08T16:20:00.748Z,4
2017-02-08T16:21:11.465Z,4
2017-02-08T16:22:22.176Z,0
2017-02-08T16:23:32.505Z,4
2017-02-08T16:24:42.459Z,4
2017-02-08T16:25:53.423Z,0
2017-02-08T16:27:04.136Z,0
2017-02-08T16:28:14.453Z,0
2017-02-08T16:29:25.167Z,0
2017-02-08T16:30:35.500Z,0
2017-02-08T16:31:46.473Z,0
2017-02-08T16:32:56.395Z,0
2017-02-08T16:34:07.114Z,0
2017-02-08T16:35:17.031Z,0
2017-02-08T16:36:27.386Z,0
2017-02-08T16:37:38.399Z,0
2017-02-08T16:38:49.107Z,0
2017-02-08T16:39:59.852Z,0
2017-02-08T16:41:10.596Z,0
2017-02-08T16:42:21.308Z,0
2017-02-08T16:43:32.271Z,0
2017-02-08T16:44:42.191Z,0
2017-02-08T16:45:52.534Z,0
2017-02-08T16:47:03.264Z,0
2017-02-08T16:48:13.971Z,0